Time;durP1;ratioP1;P1;durP2;ratioP2;P2;SDS_P1;SDS_P2;PMS_P1;PMS_P2;Temp;Humidity;BMP_temperature;BMP_pressure;BME280_temperature;BME280_humidity;BME280_pressure;Samples;Min_cycle;Max_cycle;Signal;HPM_P1;HPM_P2
2023/08/10 00:00:48;;;;;;;5.17;3.83;;;;;;;17.18;100.00;100558.52;1464776;88;21382;-80
2023/08/10 00:03:15;;;;;;;10.30;4.50;;;;;;;17.17;100.00;100560.84;1478182;88;21368;-79
2023/08/10 00:05:41;;;;;;;6.47;4.53;;;;;;;17.18;100.00;100562.52;1473318;87;21404;-80
2023/08/10 00:08:07;;;;;;;7.60;3.27;;;;;;;17.17;100.00;100560.84;1475633;87;21486;-79
2023/08/10 00:10:33;;;;;;;9.97;4.07;;;;;;;17.18;100.00;100558.00;1470490;88;21526;-80
2023/08/10 00:12:59;;;;;;;7.27;4.60;;;;;;;17.20;100.00;100556.46;1475193;87;21397;-80
2023/08/10 00:15:25;;;;;;;6.47;4.57;;;;;;;17.19;100.00;100553.47;1474215;87;22211;-80
2023/08/10 00:17:52;;;;;;;7.57;4.37;;;;;;;17.16;100.00;100549.84;1469545;87;21337;-79
2023/08/10 00:20:18;;;;;;;11.97;3.70;;;;;;;17.13;100.00;100549.19;1477447;87;21493;-79
2023/08/10 00:22:44;;;;;;;7.57;4.63;;;;;;;17.10;100.00;100545.55;1471502;87;22231;-79
2023/08/10 00:25:12;;;;;;;16.33;4.30;;;;;;;17.12;100.00;100546.72;1473003;87;21352;-79
2023/08/10 00:27:38;;;;;;;13.83;5.10;;;;;;;17.13;100.00;100543.84;1474637;87;21545;-78
2023/08/10 00:30:07;;;;;;;8.00;3.80;;;;;;;17.16;100.00;100537.30;1478714;88;21846;-79
2023/08/10 00:32:33;;;;;;;9.57;3.30;;;;;;;17.19;100.00;100541.44;1422689;87;21316;-79
2023/08/10 00:34:59;;;;;;;11.60;4.67;;;;;;;17.21;100.00;100540.23;1422649;88;21409;-79
2023/08/10 00:37:26;;;;;;;6.67;4.17;;;;;;;17.24;100.00;100548.40;1559137;87;21331;-79
2023/08/10 00:39:52;;;;;;;10.70;4.93;;;;;;;17.23;100.00;100540.03;1398651;87;22043;-79
2023/08/10 00:42:18;;;;;;;6.37;3.80;;;;;;;17.18;100.00;100541.13;1412661;87;21273;-80
2023/08/10 00:44:45;;;;;;;6.57;4.37;;;;;;;17.12;100.00;100546.20;1472666;87;21382;-79
2023/08/10 00:47:11;;;;;;;16.30;5.40;;;;;;;17.07;100.00;100548.61;1477267;88;21383;-77
2023/08/10 00:49:38;;;;;;;8.20;4.67;;;;;;;17.03;100.00;100547.81;1469665;87;21482;-79
2023/08/10 00:52:04;;;;;;;12.03;4.53;;;;;;;16.99;100.00;100543.36;1467017;87;21426;-79
2023/08/10 00:54:31;;;;;;;8.03;3.80;;;;;;;16.96;100.00;100546.41;1477603;88;21375;-79
2023/08/10 00:56:58;;;;;;;17.13;4.00;;;;;;;16.95;100.00;100538.59;1473022;88;22255;-81
2023/08/10 00:59:27;;;;;;;6.97;4.47;;;;;;;16.95;100.00;100539.41;1473797;87;21397;-79
2023/08/10 01:01:54;;;;;;;5.93;3.90;;;;;;;16.97;100.00;100540.55;1474021;87;22104;-79
2023/08/10 01:04:20;;;;;;;8.17;3.30;;;;;;;16.97;100.00;100533.86;1472034;88;21316;-79
2023/08/10 01:07:03;;;;;;;5.47;3.03;;;;;;;16.96;100.00;100529.03;1468957;87;21575;-79
2023/08/10 01:09:50;;;;;;;14.93;4.13;;;;;;;16.97;100.00;100529.34;1471521;87;21561;-79
2023/08/10 01:12:25;;;;;;;7.77;3.43;;;;;;;16.95;100.00;100529.23;1475683;88;21492;-79
2023/08/10 01:15:00;;;;;;;7.57;3.93;;;;;;;16.92;100.00;100530.44;1469826;88;21397;-79
2023/08/10 01:17:32;;;;;;;8.87;3.90;;;;;;;16.90;100.00;100529.78;1470833;87;21397;-79
2023/08/10 01:20:07;;;;;;;10.57;4.03;;;;;;;16.90;100.00;100529.78;1468642;87;21478;-78
2023/08/10 01:22:52;;;;;;;7.37;4.00;;;;;;;16.89;100.00;100533.48;1471072;88;21920;-79
2023/08/10 01:25:20;;;;;;;5.70;3.97;;;;;;;16.87;100.00;100536.33;1469684;87;21353;-79
2023/08/10 01:27:46;;;;;;;7.93;3.63;;;;;;;16.83;100.00;100532.86;1468211;87;21507;-79
2023/08/10 01:30:13;;;;;;;5.43;4.03;;;;;;;16.78;100.00;100533.95;1463717;88;21368;-79
2023/08/10 01:32:39;;;;;;;6.90;4.20;;;;;;;16.75;100.00;100534.29;1465462;88;21382;-80
2023/08/10 01:35:06;;;;;;;8.63;3.97;;;;;;;16.76;100.00;100534.59;1469401;88;21331;-79
2023/08/10 01:37:33;;;;;;;7.00;3.83;;;;;;;16.76;100.00;100531.92;1469831;88;21389;-79
2023/08/10 01:40:00;;;;;;;10.43;3.83;;;;;;;16.77;100.00;100535.77;1477011;87;21540;-79
2023/08/10 01:42:27;;;;;;;8.27;4.33;;;;;;;16.77;100.00;100537.61;1464298;88;21353;-79
2023/08/10 01:44:53;;;;;;;6.57;4.33;;;;;;;16.78;100.00;100535.28;1469624;87;21309;-77
2023/08/10 01:47:30;;;;;;;7.60;3.80;;;;;;;16.74;100.00;100537.95;1472083;88;22294;-79
2023/08/10 01:50:01;;;;;;;9.57;3.97;;;;;;;16.70;100.00;100536.17;1468669;87;21556;-79
2023/08/10 01:52:33;;;;;;;10.25;4.00;;;;;;;16.68;100.00;100536.34;1473481;87;21441;-79
2023/08/10 01:55:00;;;;;;;6.97;3.53;;;;;;;16.70;100.00;100536.99;1465644;87;21412;-79
2023/08/10 01:57:28;;;;;;;8.63;3.60;;;;;;;16.74;100.00;100535.28;1475242;87;21508;-78
2023/08/10 01:59:55;;;;;;;7.93;3.40;;;;;;;16.69;100.00;100542.02;1477758;87;21391;-80
2023/08/10 02:02:21;;;;;;;9.20;3.73;;;;;;;16.62;100.00;100537.08;1477821;87;21531;-80
2023/08/10 02:04:47;;;;;;;6.97;3.60;;;;;;;16.61;100.00;100535.95;1470667;87;21449;-80
2023/08/10 02:07:14;;;;;;;6.47;3.33;;;;;;;16.61;100.00;100530.60;1479431;88;21369;-79
2023/08/10 02:09:40;;;;;;;9.67;5.20;;;;;;;16.55;100.00;100529.49;1468915;87;21494;-79
2023/08/10 02:12:07;;;;;;;6.53;4.10;;;;;;;16.47;100.00;100534.92;1469460;88;22233;-79
2023/08/10 02:14:33;;;;;;;11.87;4.37;;;;;;;16.45;100.00;100527.08;1477287;88;21508;-79
2023/08/10 02:16:59;;;;;;;4.60;3.67;;;;;;;16.49;100.00;100537.42;1476862;88;21353;-79
2023/08/10 02:19:25;;;;;;;6.87;4.20;;;;;;;16.45;100.00;100532.93;1467283;87;22395;-80
2023/08/10 02:21:52;;;;;;;5.70;3.47;;;;;;;16.38;100.00;100541.37;1472708;87;21629;-80
2023/08/10 02:24:18;;;;;;;9.90;3.20;;;;;;;16.39;100.00;100530.99;1469434;87;21368;-80
2023/08/10 02:26:44;;;;;;;5.70;4.00;;;;;;;16.39;100.00;100535.00;1472217;88;21396;-80
2023/08/10 02:29:10;;;;;;;9.40;4.10;;;;;;;16.40;100.00;100533.98;1475207;88;22306;-79
2023/08/10 02:31:37;;;;;;;9.13;3.30;;;;;;;16.43;100.00;100533.13;1473286;87;21493;-79
2023/08/10 02:34:03;;;;;;;5.50;3.83;;;;;;;16.43;100.00;100528.30;1476160;88;21596;-78
2023/08/10 02:36:30;;;;;;;9.20;4.03;;;;;;;16.46;100.00;100529.27;1473680;87;21448;-79
2023/08/10 02:38:56;;;;;;;4.57;3.60;;;;;;;16.48;100.00;100528.55;1470095;88;21499;-80
2023/08/10 02:41:22;;;;;;;7.37;3.93;;;;;;;16.44;100.00;100530.77;1479349;88;21555;-79
2023/08/10 02:43:49;;;;;;;6.33;3.73;;;;;;;16.43;100.00;100529.64;1470235;87;22277;-80
2023/08/10 02:46:15;;;;;;;7.37;3.50;;;;;;;16.41;100.00;100534.33;1462286;87;21508;-79
2023/08/10 02:48:41;;;;;;;4.43;3.50;;;;;;;16.39;100.00;100529.66;1471702;87;21375;-79
2023/08/10 02:51:07;;;;;;;5.37;3.93;;;;;;;16.39;100.00;100536.34;1471270;88;21412;-78
2023/08/10 02:53:34;;;;;;;9.43;3.70;;;;;;;16.36;100.00;100538.04;1469952;88;21524;-79
2023/08/10 02:56:00;;;;;;;8.17;3.60;;;;;;;16.33;100.00;100541.91;1471655;88;21361;-78
2023/08/10 02:58:26;;;;;;;8.50;3.87;;;;;;;16.31;100.00;100539.91;1474158;88;22470;-78
2023/08/10 03:00:52;;;;;;;8.00;3.93;;;;;;;16.32;100.00;100544.27;1465095;88;21531;-78
2023/08/10 03:03:18;;;;;;;6.20;3.30;;;;;;;16.33;100.00;100539.74;1473365;88;21360;-78
2023/08/10 03:05:44;;;;;;;7.67;4.20;;;;;;;16.33;100.00;100538.41;1470564;87;22270;-78
2023/08/10 03:08:11;;;;;;;5.50;3.87;;;;;;;16.31;100.00;100543.09;1471621;87;22263;-78
2023/08/10 03:10:37;;;;;;;9.00;4.13;;;;;;;16.30;100.00;100542.78;1469773;88;21368;-78
2023/08/10 03:13:04;;;;;;;6.77;4.30;;;;;;;16.25;100.00;100549.98;1466054;88;21647;-78
2023/08/10 03:15:31;;;;;;;6.30;3.63;;;;;;;16.24;100.00;100551.02;1468739;87;21501;-79
2023/08/10 03:17:57;;;;;;;7.73;3.87;;;;;;;16.19;100.00;100553.39;1479651;87;21323;-78
2023/08/10 03:20:24;;;;;;;8.63;5.27;;;;;;;16.15;100.00;100554.27;1478827;87;21316;-78
2023/08/10 03:22:50;;;;;;;5.00;3.43;;;;;;;16.10;100.00;100555.30;1473852;87;21346;-80
2023/08/10 03:25:16;;;;;;;6.93;3.80;;;;;;;16.07;100.00;100562.85;1474461;87;21346;-79
2023/08/10 03:27:42;;;;;;;7.03;3.93;;;;;;;16.04;100.00;100562.70;1473919;87;21404;-79
2023/08/10 03:30:09;;;;;;;8.97;4.10;;;;;;;16.06;100.00;100566.03;1474025;87;21434;-80
2023/08/10 03:32:35;;;;;;;6.53;4.70;;;;;;;16.10;100.00;100568.66;1472680;87;21559;-78
2023/08/10 03:35:02;;;;;;;9.87;4.57;;;;;;;16.13;100.00;100569.63;1471026;87;21353;-78
2023/08/10 03:37:28;;;;;;;9.33;3.20;;;;;;;16.14;100.00;100571.30;1473799;87;21412;-78
2023/08/10 03:39:55;;;;;;;5.70;3.20;;;;;;;16.13;100.00;100568.80;1478097;87;21524;-78
2023/08/10 03:42:21;;;;;;;10.77;3.73;;;;;;;16.13;100.00;100568.29;1472796;87;21301;-79
2023/08/10 03:44:47;;;;;;;7.57;3.93;;;;;;;16.12;100.00;100567.98;1463742;88;21405;-79
2023/08/10 03:47:13;;;;;;;6.60;3.27;;;;;;;16.11;100.00;100570.33;1474280;87;22425;-79
2023/08/10 03:49:39;;;;;;;5.03;3.43;;;;;;;16.13;100.00;100572.30;1471665;88;21419;-77
2023/08/10 03:52:06;;;;;;;7.33;3.37;;;;;;;16.11;100.00;100577.48;1468911;88;21500;-79
2023/08/10 03:54:32;;;;;;;9.53;3.83;;;;;;;16.10;100.00;100576.66;1478616;87;21346;-79
2023/08/10 03:56:58;;;;;;;7.13;4.47;;;;;;;16.11;100.00;100577.00;1471957;87;22002;-80
2023/08/10 03:59:25;;;;;;;10.13;3.63;;;;;;;16.14;100.00;100576.64;1471964;88;21398;-80
2023/08/10 04:01:51;;;;;;;11.17;3.60;;;;;;;16.18;100.00;100580.60;1470588;88;21612;-80
2023/08/10 04:04:18;;;;;;;4.40;3.67;;;;;;;16.15;100.00;100583.63;1465420;87;21375;-79
2023/08/10 04:06:44;;;;;;;8.23;3.93;;;;;;;16.14;100.00;100582.47;1475277;87;22616;-79
2023/08/10 04:09:10;;;;;;;6.20;3.47;;;;;;;16.09;100.00;100577.69;1469729;88;21368;-80
2023/08/10 04:11:37;;;;;;;5.57;3.73;;;;;;;16.09;100.00;100576.86;1472003;88;21540;-79
2023/08/10 04:14:03;;;;;;;5.17;3.70;;;;;;;16.12;100.00;100579.98;1474657;87;22373;-80
2023/08/10 04:16:30;;;;;;;7.50;3.50;;;;;;;16.17;100.00;100586.97;1473489;88;21405;-80
2023/08/10 04:18:57;;;;;;;10.40;3.90;;;;;;;16.18;100.00;100585.94;1471946;88;21568;-80
2023/08/10 04:21:24;;;;;;;8.17;4.07;;;;;;;16.24;100.00;100588.40;1473895;87;21323;-80
2023/08/10 04:23:51;;;;;;;11.63;3.33;;;;;;;16.29;100.00;100588.69;1465896;88;21419;-80
2023/08/10 04:26:18;;;;;;;6.83;3.67;;;;;;;16.35;100.00;100592.48;1471889;88;21397;-80
2023/08/10 04:28:44;;;;;;;11.40;3.80;;;;;;;16.40;100.00;100590.07;1471432;87;22411;-80
2023/08/10 04:31:10;;;;;;;6.93;3.73;;;;;;;16.38;100.00;100590.78;1476290;88;21947;-80
2023/08/10 04:33:37;;;;;;;5.33;3.47;;;;;;;16.42;100.00;100590.22;1472863;88;21434;-80
2023/08/10 04:36:03;;;;;;;7.90;3.90;;;;;;;16.47;100.00;100589.69;1475464;88;21338;-80
2023/08/10 04:38:29;;;;;;;6.17;4.57;;;;;;;16.51;100.00;100584.80;1477139;87;22397;-80
2023/08/10 04:40:56;;;;;;;10.03;4.97;;;;;;;16.56;100.00;100583.23;1469872;87;21361;-80
2023/08/10 04:43:22;;;;;;;5.40;3.80;;;;;;;16.64;100.00;100585.83;1478822;88;21324;-80
2023/08/10 04:45:48;;;;;;;6.47;3.83;;;;;;;16.74;100.00;100585.55;1476331;88;21375;-80
2023/08/10 04:48:15;;;;;;;5.33;3.87;;;;;;;16.84;100.00;100584.81;1473717;87;22159;-80
2023/08/10 04:50:41;;;;;;;6.53;4.20;;;;;;;16.88;100.00;100588.77;1474493;88;21323;-79
2023/08/10 04:53:08;;;;;;;7.73;4.63;;;;;;;16.91;100.00;100589.73;1466802;87;21330;-80
2023/08/10 04:55:34;;;;;;;7.20;4.27;;;;;;;16.97;100.00;100594.84;1473830;87;22247;-80
2023/08/10 04:58:00;;;;;;;7.30;4.20;;;;;;;17.02;100.00;100597.80;1470448;88;21428;-79
2023/08/10 05:00:26;;;;;;;5.53;4.00;;;;;;;17.07;100.00;100588.72;1468122;87;22306;-79
2023/08/10 05:02:53;;;;;;;11.37;5.00;;;;;;;17.09;100.00;100594.72;1477063;88;21450;-79
2023/08/10 05:05:19;;;;;;;7.63;4.20;;;;;;;17.12;100.00;100599.69;1477673;87;21390;-79
2023/08/10 05:07:46;;;;;;;5.37;3.63;;;;;;;17.17;100.00;100598.29;1472527;88;22409;-79
2023/08/10 05:10:13;;;;;;;7.90;4.73;;;;;;;17.18;100.00;100602.64;1474123;88;21353;-80
2023/08/10 05:12:39;;;;;;;9.53;3.80;;;;;;;17.18;100.00;100600.80;1476751;87;22440;-79
2023/08/10 05:15:09;;;;;;;6.70;3.67;;;;;;;17.19;100.00;100602.44;1472090;87;21354;-79
2023/08/10 05:17:38;;;;;;;8.35;3.62;;;;;;;17.21;100.00;100608.95;1477797;88;21324;-79
2023/08/10 05:20:10;;;;;;;8.43;4.13;;;;;;;17.25;100.00;100611.56;1479592;87;21582;-79
2023/08/10 05:22:35;;;;;;;7.90;4.10;;;;;;;17.33;100.00;100610.13;1477276;88;22345;-78
2023/08/10 05:25:01;;;;;;;5.73;4.27;;;;;;;17.41;100.00;100607.34;1465776;88;21426;-79
2023/08/10 05:27:28;;;;;;;6.17;3.90;;;;;;;17.41;100.00;100606.01;1469507;87;21339;-79
2023/08/10 05:29:54;;;;;;;4.97;4.07;;;;;;;17.41;100.00;100602.00;1480966;87;22480;-79
2023/08/10 05:32:20;;;;;;;6.37;4.43;;;;;;;17.48;100.00;100604.22;1467550;88;21353;-80
2023/08/10 05:34:48;;;;;;;6.90;4.15;;;;;;;17.56;100.00;100600.61;1477687;88;21427;-80
2023/08/10 05:37:14;;;;;;;8.00;3.98;;;;;;;17.62;100.00;100601.19;1470289;87;21540;-81
2023/08/10 05:39:40;;;;;;;5.65;3.17;;;;;;;17.74;100.00;100602.34;1466545;88;21331;-80
2023/08/10 05:42:06;;;;;;;8.68;4.83;;;;;;;17.88;100.00;100604.69;1472584;88;22210;-80
2023/08/10 05:44:32;;;;;;;6.47;3.85;;;;;;;18.03;100.00;100606.77;1470673;88;22792;-80
2023/08/10 05:46:58;;;;;;;5.58;3.85;;;;;;;18.17;100.00;100609.58;1484749;88;21432;-80
2023/08/10 05:49:25;;;;;;;6.90;3.95;;;;;;;18.29;100.00;100612.05;1471524;87;21332;-80
2023/08/10 05:51:51;;;;;;;5.58;3.85;;;;;;;18.40;100.00;100600.80;1475163;88;21411;-80
2023/08/10 05:54:17;;;;;;;7.05;4.28;;;;;;;18.51;100.00;100608.83;1472803;88;21397;-80
2023/08/10 05:56:44;;;;;;;10.03;4.03;;;;;;;18.66;100.00;100610.06;1464538;88;21986;-84
2023/08/10 05:59:10;;;;;;;7.87;3.98;;;;;;;18.83;100.00;100611.44;1478406;87;21346;-82
2023/08/10 06:01:36;;;;;;;5.22;3.58;;;;;;;19.08;100.00;100610.97;1476808;87;21368;-85
2023/08/10 06:04:04;;;;;;;6.03;4.15;;;;;;;19.29;100.00;100615.39;1468214;87;21361;-86
2023/08/10 06:06:31;;;;;;;5.33;3.85;;;;;;;19.48;100.00;100613.79;1460154;88;21347;-86
2023/08/10 06:08:58;;;;;;;5.65;3.55;;;;;;;19.63;100.00;100617.68;1470279;88;22291;-85
2023/08/10 06:11:24;;;;;;;6.58;3.72;;;;;;;19.65;100.00;100620.97;1462397;88;21427;-84
2023/08/10 06:13:50;;;;;;;12.58;4.20;;;;;;;19.64;100.00;100620.67;1471883;87;21489;-85
2023/08/10 06:16:17;;;;;;;11.38;4.08;;;;;;;19.67;100.00;100619.77;1463903;88;21323;-86
2023/08/10 06:18:43;;;;;;;5.25;3.87;;;;;;;19.65;100.00;100619.17;1474521;87;21537;-85
2023/08/10 06:21:10;;;;;;;11.15;3.67;;;;;;;19.65;100.00;100617.83;1463059;88;22249;-82
2023/08/10 06:23:36;;;;;;;9.60;3.95;;;;;;;19.69;100.00;100616.37;1446958;88;21449;-79
2023/08/10 06:26:05;;;;;;;15.30;5.15;;;;;;;19.74;100.00;100615.27;1470446;88;21478;-84
2023/08/10 06:28:30;;;;;;;9.38;4.50;;;;;;;19.80;100.00;100613.10;1462447;88;21589;-84
2023/08/10 06:30:57;;;;;;;8.58;3.98;;;;;;;19.91;100.00;100608.14;1471519;87;21383;-85
2023/08/10 06:33:23;;;;;;;10.38;4.30;;;;;;;20.04;100.00;100613.55;1470049;87;22196;-84
2023/08/10 06:35:51;;;;;;;8.75;3.50;;;;;;;20.21;100.00;100612.11;1471310;87;22336;-84
2023/08/10 06:38:20;;;;;;;4.28;3.42;;;;;;;20.38;100.00;100616.55;1475146;87;22073;-90
2023/08/10 06:40:46;;;;;;;7.42;3.72;;;;;;;20.53;100.00;100615.55;1474701;88;21457;-91
2023/08/10 06:43:18;;;;;;;8.05;3.45;;;;;;;20.57;100.00;100609.55;1479177;87;21611;-86
2023/08/10 06:45:45;;;;;;;9.25;3.65;;;;;;;20.57;100.00;100610.90;1558973;87;21410;-86
2023/08/10 06:48:12;;;;;;;9.10;4.25;;;;;;;20.59;100.00;100610.15;1398197;88;21214;-85
2023/08/10 06:50:39;;;;;;;5.90;4.08;;;;;;;20.55;100.00;100610.27;1404408;88;22242;-86
2023/08/10 06:53:07;;;;;;;7.90;4.58;;;;;;;20.57;100.00;100614.08;1400356;88;21220;-85
2023/08/10 06:55:34;;;;;;;9.08;4.22;;;;;;;20.60;100.00;100615.00;1464767;88;22100;-84
2023/08/10 06:58:02;;;;;;;4.83;4.05;;;;;;;20.67;100.00;100619.34;1473212;87;21397;-85
2023/08/10 07:00:28;;;;;;;5.42;4.00;;;;;;;20.72;100.00;100623.59;1475022;87;21361;-84
2023/08/10 07:02:55;;;;;;;5.28;3.92;;;;;;;20.73;100.00;100622.54;1471839;87;22408;-83
2023/08/10 07:05:23;;;;;;;5.72;3.50;;;;;;;20.73;100.00;100628.44;1472544;87;22455;-83
2023/08/10 07:07:49;;;;;;;10.25;4.08;;;;;;;20.76;100.00;100629.89;1470007;87;21353;-86
2023/08/10 07:10:16;;;;;;;4.83;3.20;;;;;;;20.83;100.00;100625.31;1470428;88;21553;-85
2023/08/10 07:12:45;;;;;;;5.60;3.42;;;;;;;20.93;100.00;100628.41;1473918;87;21574;-84
2023/08/10 07:15:12;;;;;;;7.75;3.45;;;;;;;20.98;100.00;100634.52;1474735;87;21405;-84
2023/08/10 07:17:38;;;;;;;7.05;4.30;;;;;;;21.09;100.00;100636.03;1474101;87;22454;-84
2023/08/10 07:27:09;;;;;;;4.03;2.77;;;;;;;21.42;100.00;100647.22;1482487;90;21354;-84
2023/08/10 07:29:35;;;;;;;7.37;2.80;;;;;;;21.50;100.00;100649.67;1325746;94;21296;-84
2023/08/10 07:32:01;;;;;;;6.30;3.08;;;;;;;21.57;100.00;100651.80;1367821;92;22323;-83
2023/08/10 07:34:28;;;;;;;7.37;3.67;;;;;;;21.55;100.00;100657.94;1323150;94;21251;-84
2023/08/10 07:36:54;;;;;;;7.03;3.27;;;;;;;21.71;100.00;100659.82;1399042;90;21302;-84
2023/08/10 07:39:26;;;;;;;6.97;3.50;;;;;;;21.74;100.00;100662.91;1442939;94;21288;-84
2023/08/10 07:41:53;;;;;;;6.45;2.77;;;;;;;21.84;100.00;100659.23;1384045;91;21414;-85
2023/08/10 07:44:19;;;;;;;7.80;2.92;;;;;;;21.84;100.00;100661.11;1339155;93;21341;-84
2023/08/10 07:46:46;;;;;;;3.95;2.65;;;;;;;21.90;100.00;100664.81;1367823;90;21265;-86
2023/08/10 07:49:14;;;;;;;4.97;2.95;;;;;;;21.97;100.00;100663.70;1460293;93;21348;-85
2023/08/10 07:51:43;;;;;;;7.08;2.62;;;;;;;22.04;100.00;100669.89;1366006;91;21576;-84
2023/08/10 07:54:09;;;;;;;5.45;3.02;;;;;;;22.18;100.00;100669.81;1498375;91;21313;-81
2023/08/10 07:56:36;;;;;;;4.47;2.87;;;;;;;22.28;99.11;100670.99;1402338;87;22301;-80
2023/08/10 07:59:02;;;;;;;12.60;2.58;;;;;;;22.36;99.92;100667.21;1557633;87;21177;-79
2023/08/10 08:01:28;;;;;;;4.87;3.35;;;;;;;22.51;100.00;100669.05;1397366;88;21495;-84
2023/08/10 08:03:55;;;;;;;4.72;2.85;;;;;;;22.58;99.35;100665.47;1397644;87;21244;-83
2023/08/10 08:06:21;;;;;;;4.70;2.75;;;;;;;22.51;97.69;100667.70;1346379;92;21461;-83
2023/08/10 08:08:48;;;;;;;4.42;2.90;;;;;;;22.56;98.47;100670.24;1397920;88;21302;-83
2023/08/10 08:11:14;;;;;;;8.30;2.98;;;;;;;22.63;99.38;100669.68;1398906;88;22245;-82
2023/08/10 08:13:40;;;;;;;5.05;3.17;;;;;;;22.65;98.42;100670.30;1398875;87;22138;-83
2023/08/10 08:16:07;;;;;;;4.33;2.80;;;;;;;22.66;97.91;100667.36;1398075;87;21406;-82
2023/08/10 08:18:53;;;;;;;5.78;3.72;;;;;;;22.63;98.47;100674.55;1396629;87;21213;-83
2023/08/10 08:21:21;;;;;;;5.83;3.58;;;;;;;22.65;97.21;100671.64;1551549;87;21443;-84
2023/08/10 08:23:48;;;;;;;4.20;2.35;;;;;;;22.64;98.10;100682.11;1474487;87;21369;-82
2023/08/10 08:26:17;;;;;;;6.28;3.17;;;;;;;22.63;98.22;100677.77;1412576;87;21508;-84
2023/08/10 08:28:46;;;;;;;5.37;3.47;;;;;;;22.68;98.58;100680.64;1476014;87;21294;-86
2023/08/10 08:31:15;;;;;;;11.05;2.67;;;;;;;22.73;99.45;100683.51;1474646;87;22469;-83
2023/08/10 08:33:41;;;;;;;5.20;2.92;;;;;;;22.74;96.80;100681.10;1473395;87;22219;-85
2023/08/10 08:36:08;;;;;;;4.78;3.02;;;;;;;22.78;96.60;100676.89;1473519;87;21405;-84
2023/08/10 08:38:36;;;;;;;11.33;3.00;;;;;;;22.93;97.87;100688.19;1475973;87;21410;-85
2023/08/10 08:41:05;;;;;;;8.85;2.70;;;;;;;23.15;98.24;100682.38;1473892;88;21389;-85
2023/08/10 08:43:34;;;;;;;4.92;2.55;;;;;;;23.27;96.26;100681.10;1396047;88;21250;-87
2023/08/10 08:46:01;;;;;;;4.58;2.60;;;;;;;23.39;94.27;100680.14;1395419;87;21280;-86
2023/08/10 08:48:28;;;;;;;5.42;2.52;;;;;;;23.56;96.14;100680.85;1410754;88;21257;-85
2023/08/10 08:50:56;;;;;;;6.20;2.30;;;;;;;23.67;94.27;100673.33;1388749;89;21303;-86
2023/08/10 08:53:28;;;;;;;3.08;1.92;;;;;;;23.57;89.27;100679.82;1396186;87;21323;-87
2023/08/10 08:55:54;;;;;;;5.55;2.65;;;;;;;23.68;92.06;100687.66;1396866;88;21251;-85
2023/08/10 08:58:20;;;;;;;5.35;2.80;;;;;;;23.73;89.47;100679.20;1396449;89;21405;-86
2023/08/10 09:00:53;;;;;;;5.40;2.00;;;;;;;23.92;89.02;100685.41;1436426;87;22395;-84
2023/08/10 09:03:23;;;;;;;3.70;2.30;;;;;;;24.03;86.59;100677.05;1473505;88;21474;-85
2023/08/10 09:05:49;;;;;;;3.87;2.50;;;;;;;24.37;88.37;100684.09;1472223;87;21397;-85
2023/08/10 09:08:18;;;;;;;3.77;2.65;;;;;;;24.66;87.97;100679.72;1471038;87;21339;-84
2023/08/10 09:17:52;;;;;;;5.25;2.52;;;;;;;25.06;87.12;100686.59;1468744;88;21442;-90
2023/08/10 09:20:28;;;;;;;10.35;3.45;;;;;;;25.15;86.61;100679.78;1474846;87;22132;-87
2023/08/10 09:22:57;;;;;;;6.22;2.22;;;;;;;25.18;85.53;100679.84;1470550;87;22373;-88
2023/08/10 09:25:25;;;;;;;11.33;2.42;;;;;;;25.25;86.89;100683.77;1471265;87;22366;-87
2023/08/10 09:27:53;;;;;;;2.35;1.77;;;;;;;25.10;85.77;100687.76;1466796;88;21505;-87
2023/08/10 09:30:20;;;;;;;3.37;2.02;;;;;;;25.08;81.41;100688.52;1467939;87;22197;-87
2023/08/10 09:32:47;;;;;;;4.62;2.27;;;;;;;25.09;84.75;100687.47;1471420;87;21382;-89
2023/08/10 09:35:16;;;;;;;5.22;2.42;;;;;;;25.17;83.51;100683.59;1461261;87;21493;-88
2023/08/10 09:37:45;;;;;;;4.30;2.47;;;;;;;25.31;83.99;100687.69;1460931;87;22270;-89
2023/08/10 09:40:15;;;;;;;4.53;2.22;;;;;;;25.42;82.28;100684.66;1476484;87;22365;-87
2023/08/10 09:42:44;;;;;;;6.83;2.85;;;;;;;25.47;82.62;100686.13;1465818;88;21353;-89
2023/08/10 09:45:15;;;;;;;10.20;3.35;;;;;;;25.50;82.28;100678.05;1478029;87;21590;-89
2023/08/10 09:47:43;;;;;;;3.17;2.47;;;;;;;25.28;79.50;100684.64;1473446;87;21426;-88
2023/08/10 09:50:15;;;;;;;3.27;2.20;;;;;;;25.39;82.79;100678.38;1463354;88;22193;-88
2023/08/10 09:52:42;;;;;;;4.25;2.20;;;;;;;25.47;82.05;100680.71;1475915;87;21463;-88
2023/08/10 09:55:10;;;;;;;3.20;2.42;;;;;;;25.55;80.00;100681.69;1471609;87;21695;-87
2023/08/10 09:57:44;;;;;;;2.95;2.37;;;;;;;25.72;79.46;100679.55;1477898;87;21434;-86
2023/08/10 10:00:15;;;;;;;3.55;2.65;;;;;;;25.61;72.52;100680.73;1472742;88;22366;-87
2023/08/10 10:02:38;;;;;;;4.92;2.85;;;;;;;25.47;72.69;100679.36;1470662;88;22307;-91
2023/08/10 10:05:11;;;;;;;2.67;2.20;;;;;;;25.46;73.21;100674.98;1462148;88;21527;-88
2023/08/10 10:07:39;;;;;;;6.50;2.33;;;;;;;25.48;73.55;100673.40;1463141;87;21317;-88
2023/08/10 10:10:12;;;;;;;5.12;2.30;;;;;;;25.56;74.18;100675.20;1477560;87;21523;-89
2023/08/10 10:12:38;;;;;;;2.58;2.20;;;;;;;25.61;73.36;100675.30;1479843;87;21420;-89
2023/08/10 10:15:11;;;;;;;6.33;2.35;;;;;;;25.73;73.75;100677.16;1446645;88;22448;-89
2023/08/10 10:17:38;;;;;;;4.67;2.10;;;;;;;25.90;73.59;100678.05;1471284;88;21309;-88
2023/08/10 10:20:11;;;;;;;9.18;2.22;;;;;;;25.77;71.53;100677.77;1468242;88;21420;-89
2023/08/10 10:22:36;;;;;;;6.83;2.55;;;;;;;25.72;70.78;100677.69;1463006;88;22389;-90
2023/08/10 10:25:03;;;;;;;7.83;2.60;;;;;;;25.57;71.39;100675.48;1463552;88;21368;-88
2023/08/10 10:27:39;;;;;;;4.58;2.77;;;;;;;25.55;69.87;100677.63;1470599;87;21411;-89
2023/08/10 10:30:16;;;;;;;5.58;3.00;;;;;;;25.56;72.21;100677.09;1475016;87;21464;-89
2023/08/10 10:32:45;;;;;;;5.22;2.52;;;;;;;25.43;70.79;100677.66;1468338;88;22418;-90
2023/08/10 10:35:25;;;;;;;3.72;2.92;;;;;;;25.37;73.53;100677.78;1475134;87;21449;-90
2023/08/10 10:37:57;;;;;;;;;;;;;;;25.69;74.11;100680.03;1477035;88;21520;-89
2023/08/10 10:40:26;;;;;;;3.37;2.17;;;;;;;26.00;74.77;100671.44;1478246;88;20318;-88
2023/08/10 10:43:07;;;;;;;8.93;2.70;;;;;;;25.91;69.98;100672.91;1479190;87;21441;-87
2023/08/10 10:45:42;;;;;;;14.50;2.85;;;;;;;26.06;72.35;100675.88;1462326;87;21523;-89
2023/08/10 10:48:13;;;;;;;5.00;2.05;;;;;;;26.05;71.75;100668.83;1478700;87;21397;-88
2023/08/10 10:50:40;;;;;;;5.05;2.10;;;;;;;25.96;71.64;100670.83;1482492;88;21494;-88
2023/08/10 10:53:13;;;;;;;5.12;2.27;;;;;;;25.63;71.26;100674.51;1472396;88;21419;-90
2023/08/10 10:55:45;;;;;;;9.38;2.98;;;;;;;25.47;71.75;100669.88;1476508;87;21649;-85
2023/08/10 10:58:14;;;;;;;6.15;2.60;;;;;;;25.34;73.28;100670.13;1474364;88;22270;-90
2023/08/10 11:00:43;;;;;;;20.27;2.72;;;;;;;25.35;73.19;100668.55;1466342;87;22443;-91
2023/08/10 11:03:13;;;;;;;6.22;2.62;;;;;;;25.55;74.51;100671.36;1473153;87;21427;-91
2023/08/10 11:05:40;;;;;;;10.45;3.02;;;;;;;25.77;72.43;100670.17;1472595;87;21310;-89
2023/08/10 11:08:06;;;;;;;5.72;2.62;;;;;;;25.82;71.40;100671.63;1476780;88;21481;-86
2023/08/10 11:10:40;;;;;;;22.00;2.77;;;;;;;25.96;71.37;100664.87;1480134;87;22263;-86
2023/08/10 11:13:08;;;;;;;5.65;2.40;;;;;;;26.18;72.30;100661.44;1476521;88;21405;-86
2023/08/10 11:15:38;;;;;;;3.37;2.42;;;;;;;26.31;70.28;100661.13;1469052;87;21397;-87
2023/08/10 11:18:12;;;;;;;2.77;2.33;;;;;;;26.34;68.35;100661.98;1472238;87;21577;-86
2023/08/10 11:20:47;;;;;;;3.75;2.22;;;;;;;26.56;70.55;100660.75;1471890;88;21538;-85
2023/08/10 11:23:13;;;;;;;3.77;2.20;;;;;;;26.63;67.26;100657.86;1477232;88;21294;-87
2023/08/10 11:25:50;;;;;;;3.98;2.33;;;;;;;26.78;70.38;100656.17;1476102;88;21412;-85
2023/08/10 11:28:20;;;;;;;2.90;2.12;;;;;;;26.97;68.44;100654.55;1476093;88;21456;-85
2023/08/10 11:30:48;;;;;;;4.03;2.12;;;;;;;27.07;66.74;100650.59;1474046;87;21412;-87
2023/08/10 11:33:15;;;;;;;9.85;3.25;;;;;;;26.95;70.11;100647.17;1469042;87;21353;-86
2023/08/10 11:35:53;;;;;;;7.17;1.85;;;;;;;26.68;70.95;100646.54;1476315;88;21351;-87